Time;durP1;ratioP1;P1;durP2;ratioP2;P2;SDS_P1;SDS_P2;PMS_P1;PMS_P2;Temp;Humidity;BMP_temperature;BMP_pressure;BME280_temperature;BME280_humidity;BME280_pressure;Samples;Min_cycle;Max_cycle;Signal;HPM_P1;HPM_P2
2022/05/11 00:01:46;;;;;;;12.20;7.80;;;;;;;14.52;100.00;96869.25;4964878;28;20057;-66
2022/05/11 00:04:12;;;;;;;9.35;6.75;;;;;;;14.69;100.00;96872.50;4956678;28;20043;-65
2022/05/11 00:06:38;;;;;;;10.07;7.13;;;;;;;14.83;100.00;96867.00;4965865;28;20062;-66
2022/05/11 00:09:05;;;;;;;9.80;6.55;;;;;;;14.91;100.00;96871.38;4960939;28;20085;-61
2022/05/11 00:11:32;;;;;;;13.07;6.47;;;;;;;14.91;100.00;96876.88;4942922;28;20043;-66
2022/05/11 00:13:58;;;;;;;12.52;6.65;;;;;;;14.93;100.00;96864.66;4951151;28;20047;-67
2022/05/11 00:16:26;;;;;;;10.25;7.07;;;;;;;14.88;100.00;96871.38;4989707;28;20535;-67
2022/05/11 00:18:51;;;;;;;9.85;6.60;;;;;;;14.76;100.00;96867.00;4961834;28;20043;-67
2022/05/11 00:21:17;;;;;;;11.35;7.20;;;;;;;14.51;100.00;96864.94;4955272;28;20051;-66
2022/05/11 00:23:44;;;;;;;10.05;7.28;;;;;;;14.38;100.00;96860.94;4962109;28;20054;-65
2022/05/11 00:26:09;;;;;;;14.15;7.53;;;;;;;14.29;100.00;96860.50;4955791;28;20051;-66
2022/05/11 00:28:35;;;;;;;8.80;7.15;;;;;;;14.21;100.00;96867.19;4961238;28;20043;-66
2022/05/11 00:31:01;;;;;;;9.85;6.45;;;;;;;14.24;100.00;96858.94;4960261;28;20043;-67
2022/05/11 00:33:27;;;;;;;9.50;7.40;;;;;;;14.27;100.00;96858.13;4955395;28;20663;-66
2022/05/11 00:35:52;;;;;;;15.30;7.00;;;;;;;14.29;100.00;96853.03;4960299;28;20058;-67
2022/05/11 00:38:20;;;;;;;11.82;7.13;;;;;;;14.34;100.00;96860.16;4955760;28;20154;-66
2022/05/11 00:40:50;;;;;;;8.68;6.63;;;;;;;14.38;100.00;96858.19;4945811;28;20110;-67
2022/05/11 00:43:26;;;;;;;7.82;6.07;;;;;;;14.41;100.00;96854.66;4970263;28;20075;-66
2022/05/11 00:45:51;;;;;;;11.93;6.18;;;;;;;14.42;100.00;96859.00;4967963;28;20043;-66
2022/05/11 00:51:12;;;;;;;7.70;5.70;;;;;;;14.39;100.00;96851.50;4958812;28;20054;-66
2022/05/11 00:53:40;;;;;;;10.52;7.07;;;;;;;14.33;100.00;96848.34;4964732;28;20137;-66
2022/05/11 00:56:06;;;;;;;10.48;6.60;;;;;;;14.30;100.00;96846.34;4958902;28;20074;-67
2022/05/11 00:58:44;;;;;;;9.10;6.95;;;;;;;14.15;100.00;96851.03;4963717;28;20062;-66
2022/05/11 01:01:09;;;;;;;10.27;6.82;;;;;;;14.14;100.00;96841.16;4958396;28;20043;-67
2022/05/11 01:03:46;;;;;;;10.93;7.03;;;;;;;14.22;100.00;96850.25;4963595;28;20495;-67
2022/05/11 01:06:12;;;;;;;12.93;6.47;;;;;;;14.29;100.00;96849.50;4955299;28;20050;-66
2022/05/11 01:08:39;;;;;;;12.80;6.53;;;;;;;14.32;100.00;96849.50;4962719;28;20051;-66
2022/05/11 01:11:07;;;;;;;9.77;6.97;;;;;;;14.31;100.00;96852.66;4959825;28;20058;-67
2022/05/11 01:13:34;;;;;;;9.82;6.80;;;;;;;14.33;100.00;96845.59;4963405;28;20140;-66
2022/05/11 01:16:00;;;;;;;9.23;6.30;;;;;;;14.38;100.00;96844.41;4963428;28;20054;-66
2022/05/11 01:18:28;;;;;;;9.57;7.25;;;;;;;14.39;100.00;96847.97;4948204;28;20072;-67
2022/05/11 01:20:53;;;;;;;12.82;6.80;;;;;;;14.38;100.00;96847.16;4967530;28;20042;-67
2022/05/11 01:23:36;;;;;;;9.73;6.82;;;;;;;14.30;100.00;96849.09;4955271;28;20069;-67
2022/05/11 01:26:02;;;;;;;12.93;7.30;;;;;;;14.07;100.00;96851.38;4962673;28;20043;-68
2022/05/11 01:28:29;;;;;;;11.23;7.00;;;;;;;13.93;100.00;96847.34;4960494;28;20054;-67
2022/05/11 01:31:05;;;;;;;11.25;7.07;;;;;;;13.67;100.00;96842.88;4961534;28;20125;-67
2022/05/11 01:33:33;;;;;;;10.73;6.80;;;;;;;13.72;100.00;96842.53;4961410;28;20454;-67
2022/05/11 01:35:59;;;;;;;10.35;6.38;;;;;;;13.82;100.00;96843.75;4962624;28;20100;-67
2022/05/11 01:38:31;;;;;;;10.15;6.97;;;;;;;13.84;100.00;96841.41;4957761;28;20387;-68
2022/05/11 01:40:57;;;;;;;9.48;6.65;;;;;;;13.93;100.00;96844.59;4963527;28;20073;-67
2022/05/11 01:43:29;;;;;;;11.40;7.47;;;;;;;13.87;100.00;96842.59;4958220;28;20559;-67
2022/05/11 01:45:55;;;;;;;10.32;7.22;;;;;;;13.69;100.00;96842.50;4962088;28;20046;-67
2022/05/11 01:48:21;;;;;;;14.60;7.43;;;;;;;13.46;100.00;96837.22;4957474;28;20035;-66
2022/05/11 01:50:47;;;;;;;11.77;7.80;;;;;;;13.19;100.00;96845.63;4963205;28;20051;-66
2022/05/11 01:53:13;;;;;;;10.48;8.10;;;;;;;13.01;100.00;96838.00;4957884;28;20049;-65
2022/05/11 01:55:39;;;;;;;12.40;8.13;;;;;;;12.86;100.00;96838.28;4961854;28;20105;-67
2022/05/11 01:58:09;;;;;;;14.05;8.57;;;;;;;12.78;100.00;96834.66;4957879;28;20062;-65
2022/05/11 02:00:35;;;;;;;;;;;;;;;12.75;100.00;96832.69;4961052;28;20042;-66
2022/05/11 02:03:01;;;;;;;11.07;7.95;;;;;;;12.74;100.00;96836.59;4962239;28;19980;-66
2022/05/11 02:08:10;;;;;;;12.02;7.70;;;;;;;12.74;100.00;96842.09;4957050;28;20137;-67
2022/05/11 02:10:36;;;;;;;11.20;7.95;;;;;;;12.74;100.00;96834.63;4963034;28;20074;-67
2022/05/11 02:13:02;;;;;;;11.25;8.77;;;;;;;12.76;100.00;96835.03;4960722;28;20057;-69
2022/05/11 02:15:28;;;;;;;12.85;7.97;;;;;;;12.86;100.00;96841.81;4959673;28;20669;-67
2022/05/11 02:17:54;;;;;;;10.52;7.95;;;;;;;13.00;100.00;96838.41;4958660;28;20119;-66
2022/05/11 02:20:21;;;;;;;15.57;7.53;;;;;;;13.09;100.00;96833.38;4955510;28;20050;-67
2022/05/11 02:22:46;;;;;;;10.88;7.30;;;;;;;13.09;100.00;96835.31;4962420;28;20053;-66
2022/05/11 02:25:15;;;;;;;19.73;8.02;;;;;;;12.81;100.00;96837.44;4957672;28;20064;-67
2022/05/11 02:27:41;;;;;;;12.98;7.82;;;;;;;12.69;100.00;96840.44;4961157;28;20039;-66
2022/05/11 02:30:10;;;;;;;9.50;6.88;;;;;;;12.81;100.00;96837.44;4958134;28;20092;-65
2022/05/11 02:32:37;;;;;;;9.88;6.88;;;;;;;12.91;100.00;96843.41;4962865;28;20069;-66
2022/05/11 02:35:13;;;;;;;10.73;7.05;;;;;;;12.95;100.00;96844.25;4961902;28;20039;-68
2022/05/11 02:37:42;;;;;;;10.13;7.22;;;;;;;12.95;100.00;96841.50;4962259;28;20133;-65
2022/05/11 02:40:08;;;;;;;13.32;7.38;;;;;;;12.97;100.00;96841.91;4960172;28;20043;-68
2022/05/11 02:42:34;;;;;;;10.15;6.82;;;;;;;12.97;100.00;96839.94;4965309;28;20042;-66
2022/05/11 02:44:59;;;;;;;9.57;6.82;;;;;;;12.95;100.00;96842.28;4961242;28;20050;-65
2022/05/11 02:47:25;;;;;;;10.02;6.43;;;;;;;12.95;100.00;96842.28;4956730;28;20431;-66
2022/05/11 02:49:51;;;;;;;10.07;6.97;;;;;;;12.92;100.00;96840.28;4963224;28;20376;-67
2022/05/11 02:52:17;;;;;;;9.40;6.95;;;;;;;12.89;100.00;96843.81;4950114;28;20130;-66
2022/05/11 02:54:46;;;;;;;10.38;6.88;;;;;;;12.83;100.00;96839.81;4955312;28;20050;-66
2022/05/11 02:57:13;;;;;;;10.43;6.57;;;;;;;12.70;100.00;96842.03;4959765;28;20117;-65
2022/05/11 02:59:38;;;;;;;9.85;7.20;;;;;;;12.77;100.00;96836.63;4959902;28;20039;-67
2022/05/11 03:02:04;;;;;;;9.95;6.38;;;;;;;12.67;100.00;96836.50;4958541;28;20108;-64
2022/05/11 03:04:29;;;;;;;10.68;7.00;;;;;;;12.48;100.00;96838.28;4952974;28;20087;-67
2022/05/11 03:06:55;;;;;;;19.80;7.30;;;;;;;12.48;100.00;96840.22;4960314;28;20054;-66
2022/05/11 03:09:20;;;;;;;10.25;6.22;;;;;;;12.45;100.00;96844.53;4957349;28;20159;-66
2022/05/11 03:11:46;;;;;;;7.93;6.43;;;;;;;12.46;100.00;96837.88;4951864;28;20074;-66
2022/05/11 03:14:12;;;;;;;8.27;6.40;;;;;;;12.48;100.00;96843.78;4957298;28;20078;-66
2022/05/11 03:16:39;;;;;;;9.57;6.63;;;;;;;12.51;100.00;96836.72;4959339;28;20039;-65
2022/05/11 03:19:05;;;;;;;8.43;6.68;;;;;;;12.54;100.00;96841.47;4956278;28;20047;-64
2022/05/11 03:21:31;;;;;;;11.23;7.13;;;;;;;12.59;100.00;96844.69;4956983;28;20051;-66
2022/05/11 03:23:57;;;;;;;10.73;6.88;;;;;;;12.55;100.00;96841.13;4953876;28;20054;-66
2022/05/11 03:26:23;;;;;;;9.38;6.70;;;;;;;12.50;100.00;96841.44;4956040;28;20455;-68
2022/05/11 03:28:49;;;;;;;9.77;6.82;;;;;;;12.44;100.00;96840.19;4962073;28;20046;-68
2022/05/11 03:31:15;;;;;;;11.00;6.65;;;;;;;12.43;100.00;96844.13;4950177;28;20515;-67
2022/05/11 03:36:25;;;;;;;10.05;6.97;;;;;;;12.39;100.00;96840.53;4952116;28;20057;-66
2022/05/11 03:38:51;;;;;;;10.25;7.00;;;;;;;12.27;100.00;96835.28;4953618;28;20047;-65
2022/05/11 03:41:17;;;;;;;11.88;7.00;;;;;;;12.17;100.00;96839.47;4954551;28;20093;-67
2022/05/11 03:43:43;;;;;;;12.07;7.18;;;;;;;12.00;100.00;96838.88;4959652;28;20054;-66
2022/05/11 03:46:09;;;;;;;10.63;6.88;;;;;;;11.73;100.00;96840.84;4953666;28;20116;-65
2022/05/11 03:48:35;;;;;;;9.70;7.22;;;;;;;11.62;100.00;96840.69;4963480;28;20524;-66
2022/05/11 03:51:00;;;;;;;10.07;7.30;;;;;;;11.74;100.00;96839.69;4975672;28;20117;-67
2022/05/11 03:53:26;;;;;;;9.90;6.80;;;;;;;11.88;100.00;96841.81;4956473;28;20187;-68
2022/05/11 03:55:52;;;;;;;9.75;7.18;;;;;;;12.00;100.00;96835.34;4950263;28;20054;-68
2022/05/11 03:58:17;;;;;;;8.73;6.53;;;;;;;12.07;100.00;96843.69;4952114;28;20043;-67
2022/05/11 04:00:42;;;;;;;10.50;7.28;;;;;;;12.12;100.00;96846.09;4961991;28;20047;-68
2022/05/11 04:03:08;;;;;;;14.13;6.95;;;;;;;12.14;100.00;96843.00;4956902;28;20608;-67
2022/05/11 04:05:34;;;;;;;10.18;7.43;;;;;;;11.99;100.00;96842.81;4956186;28;20133;-66
2022/05/11 04:07:59;;;;;;;10.38;7.68;;;;;;;11.85;100.00;96837.09;4953367;28;20070;-67
2022/05/11 04:10:25;;;;;;;12.45;7.18;;;;;;;11.96;100.00;96838.06;4939120;28;20043;-66
2022/05/11 04:12:51;;;;;;;10.55;6.97;;;;;;;12.02;100.00;96853.03;4961397;28;20102;-69
2022/05/11 04:15:17;;;;;;;10.32;7.15;;;;;;;12.19;100.00;96843.44;4957462;28;20043;-67
2022/05/11 04:17:44;;;;;;;14.73;7.03;;;;;;;12.31;100.00;96847.09;4979041;28;20035;-67
2022/05/11 04:20:13;;;;;;;10.23;7.28;;;;;;;12.45;100.00;96843.75;4962463;28;20097;-69
2022/05/11 04:22:39;;;;;;;8.63;6.73;;;;;;;12.53;100.00;96843.44;4970282;28;20058;-73
2022/05/11 04:25:05;;;;;;;12.45;7.18;;;;;;;12.66;100.00;96851.41;4967044;28;20047;-70
2022/05/11 04:27:32;;;;;;;7.47;5.80;;;;;;;12.79;100.00;96852.75;4957116;28;20066;-67
2022/05/11 04:29:58;;;;;;;12.68;6.40;;;;;;;12.90;100.00;96839.88;4956879;28;20043;-67
2022/05/11 04:32:23;;;;;;;9.20;5.75;;;;;;;13.00;100.00;96846.66;4963857;28;20106;-66
2022/05/11 04:34:50;;;;;;;13.95;6.43;;;;;;;13.08;100.00;96851.03;4961216;28;20070;-67
2022/05/11 04:37:15;;;;;;;8.68;6.10;;;;;;;13.15;100.00;96850.31;4958278;28;20192;-68
2022/05/11 04:39:41;;;;;;;9.02;5.75;;;;;;;13.24;100.00;96852.75;4960184;28;20143;-67
2022/05/11 04:42:08;;;;;;;10.57;6.07;;;;;;;13.30;100.00;96859.47;4946249;28;20074;-71
2022/05/11 04:44:33;;;;;;;9.90;6.00;;;;;;;13.46;100.00;96860.03;4944483;28;20043;-67
2022/05/11 04:46:59;;;;;;;6.75;5.43;;;;;;;13.64;100.00;96859.38;4943542;28;20400;-66
2022/05/11 04:49:25;;;;;;;9.23;5.63;;;;;;;13.78;100.00;96856.72;4938906;28;20047;-65
2022/05/11 04:51:58;;;;;;;13.57;6.30;;;;;;;13.94;100.00;96862.72;4955283;28;20050;-66
2022/05/11 04:54:24;;;;;;;9.70;6.32;;;;;;;13.97;100.00;96866.63;4959450;28;20549;-66
2022/05/11 04:56:49;;;;;;;11.65;6.57;;;;;;;13.92;100.00;96865.06;4952809;28;20424;-66
2022/05/11 04:59:15;;;;;;;14.25;6.30;;;;;;;14.30;100.00;96870.38;4958629;28;20111;-67
2022/05/11 05:01:40;;;;;;;8.88;5.68;;;;;;;15.28;100.00;96878.50;4958780;28;20130;-66
2022/05/11 05:04:06;;;;;;;9.52;4.90;;;;;;;16.18;100.00;96881.19;4948395;28;20053;-65
2022/05/11 05:06:34;;;;;;;7.20;5.40;;;;;;;16.42;96.94;96887.84;4963352;28;20042;-65
2022/05/11 05:09:02;;;;;;;9.40;5.60;;;;;;;16.86;97.81;96880.16;4952603;28;20046;-68
2022/05/11 05:11:27;;;;;;;10.27;5.47;;;;;;;18.22;89.57;96883.03;4957650;28;20042;-67
2022/05/11 05:13:53;;;;;;;9.50;5.10;;;;;;;19.25;81.84;96883.72;4962136;28;20089;-65
2022/05/11 05:16:18;;;;;;;7.32;5.47;;;;;;;19.76;80.13;96888.50;4958009;28;20051;-65
2022/05/11 05:18:44;;;;;;;9.90;5.55;;;;;;;20.24;75.15;96890.81;4959567;28;20058;-65
2022/05/11 05:21:09;;;;;;;7.30;5.25;;;;;;;18.82;79.63;96887.09;4946220;28;20039;-69
2022/05/11 05:23:35;;;;;;;12.93;5.68;;;;;;;18.00;84.30;96891.56;4958659;28;20587;-65
2022/05/11 05:26:02;;;;;;;6.55;4.90;;;;;;;19.12;81.62;96893.81;4961107;28;20052;-64
2022/05/11 05:31:16;;;;;;;12.13;5.55;;;;;;;19.26;78.27;96895.59;4952373;28;20462;-65
2022/05/11 05:33:43;;;;;;;8.55;5.60;;;;;;;19.12;79.31;96891.03;4965971;28;20578;-66
2022/05/11 05:36:09;;;;;;;7.68;5.32;;;;;;;19.21;78.15;96893.28;4950480;28;20043;-65
2022/05/11 05:38:38;;;;;;;7.05;5.47;;;;;;;21.02;72.16;96900.03;4960879;28;20546;-65
2022/05/11 05:41:07;;;;;;;9.00;5.35;;;;;;;22.92;64.39;96895.19;4952252;28;20182;-70
2022/05/11 05:43:33;;;;;;;9.85;5.28;;;;;;;22.98;60.99;96901.03;4962200;28;20388;-66
2022/05/11 05:45:59;;;;;;;8.88;5.45;;;;;;;23.51;59.46;96898.59;4963084;28;20078;-68
2022/05/11 05:48:25;;;;;;;7.35;5.20;;;;;;;23.44;58.70;96898.81;4958442;28;20061;-66
2022/05/11 05:50:50;;;;;;;8.25;4.90;;;;;;;25.17;52.46;96899.22;4960858;28;20047;-67
2022/05/11 05:53:19;;;;;;;8.27;5.28;;;;;;;25.18;52.30;96909.22;4951190;28;20527;-67
2022/05/11 05:55:49;;;;;;;6.40;4.68;;;;;;;26.94;48.00;96910.34;4962549;28;20161;-68
2022/05/11 05:58:17;;;;;;;;;;;;;;;26.98;45.40;96898.94;4949984;28;20604;-68
2022/05/11 06:00:45;;;;;;;5.47;4.03;;;;;;;26.52;46.37;96911.78;4962880;28;19988;-68
2022/05/11 06:03:12;;;;;;;7.28;3.70;;;;;;;28.17;42.78;96905.31;4950513;28;20049;-65
2022/05/11 06:05:38;;;;;;;6.68;4.00;;;;;;;28.79;38.60;96912.19;4958879;28;20039;-67
2022/05/11 06:08:07;;;;;;;4.40;2.97;;;;;;;30.57;35.56;96910.28;4962376;28;20079;-66
2022/05/11 06:10:35;;;;;;;6.55;3.50;;;;;;;27.15;37.79;96914.19;4951033;28;20039;-68
2022/05/11 06:13:01;;;;;;;4.32;3.42;;;;;;;27.02;39.81;96914.38;4961908;28;20038;-68
2022/05/11 06:15:26;;;;;;;6.40;3.47;;;;;;;24.35;45.20;96915.00;4947328;28;20051;-67
2022/05/11 06:17:51;;;;;;;8.20;3.88;;;;;;;23.77;49.45;96918.13;4962113;28;20043;-68
2022/05/11 06:20:17;;;;;;;11.65;3.30;;;;;;;25.91;44.77;96913.53;4957571;28;20042;-67
2022/05/11 06:22:42;;;;;;;6.78;3.60;;;;;;;28.16;39.74;96913.00;4958489;28;20040;-66
2022/05/11 06:25:08;;;;;;;12.02;4.32;;;;;;;25.72;43.30;96912.72;4950046;28;20057;-68
2022/05/11 06:27:34;;;;;;;5.13;3.70;;;;;;;26.86;42.87;96909.88;4960339;28;20038;-68
2022/05/11 06:30:01;;;;;;;6.07;4.50;;;;;;;29.19;37.21;96915.72;4959235;28;20047;-67
2022/05/11 06:32:27;;;;;;;4.90;3.22;;;;;;;28.88;37.87;96908.50;4957101;28;20492;-67
2022/05/11 06:34:53;;;;;;;7.80;3.88;;;;;;;28.45;38.89;96911.53;4952322;28;20042;-67
2022/05/11 06:37:22;;;;;;;5.20;3.65;;;;;;;30.51;34.68;96921.53;4955965;28;20044;-67
2022/05/11 06:39:48;;;;;;;5.22;3.53;;;;;;;28.50;39.26;96919.28;4962207;28;20488;-66
2022/05/11 06:42:14;;;;;;;9.38;4.47;;;;;;;25.90;44.94;96917.59;4956322;28;20548;-66
2022/05/11 06:44:40;;;;;;;9.15;4.15;;;;;;;27.33;42.55;96921.81;4959768;28;20053;-69
2022/05/11 06:47:06;;;;;;;8.95;3.97;;;;;;;28.52;40.61;96913.19;4956218;28;20038;-66
2022/05/11 06:49:32;;;;;;;6.18;3.50;;;;;;;29.65;37.58;96918.78;4956567;28;20054;-65
2022/05/11 06:51:58;;;;;;;11.00;3.65;;;;;;;28.50;38.85;96908.03;4953620;28;20397;-68
2022/05/11 06:59:54;;;;;;;7.05;4.72;;;;;;;26.16;44.35;96912.53;4962021;28;20058;-66
2022/05/11 07:02:20;;;;;;;6.57;3.53;;;;;;;27.12;42.79;96903.09;4956045;28;20065;-71
2022/05/11 07:04:45;;;;;;;9.05;4.60;;;;;;;26.75;42.66;96903.19;4960308;28;20047;-66
2022/05/11 07:07:11;;;;;;;7.70;4.78;;;;;;;24.92;48.55;96908.59;4943277;28;20456;-66
2022/05/11 07:09:39;;;;;;;7.50;4.70;;;;;;;26.28;45.71;96908.03;4961551;28;20209;-66
2022/05/11 07:12:17;;;;;;;8.85;4.47;;;;;;;26.88;44.20;96898.16;4949989;28;20507;-67
2022/05/11 07:14:50;;;;;;;7.70;4.60;;;;;;;27.19;42.54;96889.50;4961611;28;20693;-67
2022/05/11 07:17:33;;;;;;;7.28;4.47;;;;;;;27.14;43.50;96898.59;4970913;28;20043;-66
2022/05/11 07:20:07;;;;;;;7.55;5.35;;;;;;;27.62;42.56;96892.31;4970001;28;20051;-68
2022/05/11 07:22:32;;;;;;;5.75;4.03;;;;;;;27.33;43.65;96896.50;4960344;28;20047;-68
2022/05/11 07:24:58;;;;;;;6.30;3.58;;;;;;;27.36;44.82;96894.78;4964185;28;20043;-66
2022/05/11 07:27:23;;;;;;;8.88;3.60;;;;;;;27.71;43.58;96897.88;4949253;28;20820;-67
2022/05/11 07:29:51;;;;;;;8.65;4.32;;;;;;;27.25;44.36;96893.22;4960305;28;20078;-67
2022/05/11 07:32:17;;;;;;;9.85;4.55;;;;;;;26.95;45.28;96886.59;4948773;28;20113;-66
2022/05/11 07:34:42;;;;;;;5.45;4.13;;;;;;;26.51;45.12;96895.38;4959913;28;20159;-65
2022/05/11 07:37:08;;;;;;;7.65;4.57;;;;;;;26.13;46.98;96896.63;4954512;28;20039;-68
2022/05/11 07:39:33;;;;;;;8.93;4.30;;;;;;;26.24;46.85;96896.94;4956140;28;20109;-67
2022/05/11 07:41:59;;;;;;;9.88;4.50;;;;;;;25.68;48.25;96898.84;4960842;28;20041;-66
2022/05/11 07:44:25;;;;;;;9.07;4.50;;;;;;;26.04;48.32;96896.63;4962254;28;20070;-67
2022/05/11 07:46:51;;;;;;;8.70;4.35;;;;;;;26.55;46.35;96886.81;4973702;28;20066;-67
2022/05/11 07:49:18;;;;;;;8.27;4.30;;;;;;;27.47;43.31;96886.63;4967979;28;20151;-67
2022/05/11 07:51:45;;;;;;;8.10;4.45;;;;;;;27.33;42.58;96885.25;4951968;28;20054;-65
2022/05/11 07:54:11;;;;;;;5.50;3.80;;;;;;;27.76;41.34;96888.81;4949738;28;20503;-66
2022/05/11 08:02:06;;;;;;;9.70;3.67;;;;;;;31.04;34.24;96892.03;4950480;28;20077;-66
2022/05/11 08:04:31;;;;;;;5.72;3.50;;;;;;;31.63;33.30;96895.59;4961355;28;20047;-68
2022/05/11 08:06:58;;;;;;;7.65;3.22;;;;;;;31.45;33.42;96883.34;4961094;28;20047;-67
2022/05/11 08:09:24;;;;;;;3.80;3.22;;;;;;;30.19;36.18;96883.84;4953929;28;20518;-65
2022/05/11 08:11:52;;;;;;;7.03;3.90;;;;;;;25.89;44.32;96883.16;4953260;28;20035;-67
2022/05/11 08:14:18;;;;;;;6.97;3.92;;;;;;;24.55;48.98;96883.94;4945589;28;20480;-64
2022/05/11 08:16:44;;;;;;;9.15;3.30;;;;;;;26.65;45.88;96871.50;4960889;28;20120;-67
2022/05/11 08:19:10;;;;;;;5.10;3.40;;;;;;;29.09;38.63;96876.31;4956041;28;20126;-68
2022/05/11 08:21:36;;;;;;;5.72;3.20;;;;;;;29.56;37.59;96882.22;4952667;28;20126;-68
2022/05/11 08:24:02;;;;;;;6.35;3.33;;;;;;;29.72;38.04;96880.91;4960491;28;20047;-65
2022/05/11 08:26:27;;;;;;;4.55;3.20;;;;;;;30.54;35.30;96875.31;4957045;28;20499;-66
2022/05/11 08:28:53;;;;;;;4.55;3.33;;;;;;;27.35;41.67;96868.72;4963589;28;20042;-67
2022/05/11 08:34:03;;;;;;;6.32;3.08;;;;;;;29.16;38.21;96861.84;4959731;28;20042;-65
2022/05/11 08:36:29;;;;;;;9.13;3.22;;;;;;;30.09;36.66;96867.06;4950882;28;20133;-67
2022/05/11 08:38:57;;;;;;;9.60;3.40;;;;;;;29.18;37.18;96867.00;4961617;28;20186;-67
2022/05/11 08:41:28;;;;;;;5.55;3.20;;;;;;;29.64;37.48;96863.63;4949533;28;20093;-67
2022/05/11 08:44:15;;;;;;;7.03;3.50;;;;;;;30.80;35.56;96861.19;4953256;28;20496;-70
2022/05/11 08:46:44;;;;;;;10.63;3.30;;;;;;;31.06;34.69;96855.53;4960229;28;20039;-64
2022/05/11 08:49:21;;;;;;;10.43;3.73;;;;;;;30.82;35.32;96857.84;4954920;28;20069;-64
2022/05/11 08:52:05;;;;;;;6.82;3.38;;;;;;;31.27;34.25;96851.84;4960521;28;20035;-63
2022/05/11 08:54:46;;;;;;;4.40;3.20;;;;;;;30.55;36.54;96857.06;4959382;28;20053;-64
2022/05/11 08:57:23;;;;;;;7.75;3.17;;;;;;;31.47;34.73;96853.78;4949123;28;20070;-64
2022/05/11 08:59:52;;;;;;;7.88;3.63;;;;;;;30.17;35.88;96849.69;4960921;28;20101;-64
2022/05/11 09:02:59;;;;;;;5.78;3.08;;;;;;;30.82;34.63;96849.38;4954940;28;20073;-65
2022/05/11 09:05:29;;;;;;;4.50;3.15;;;;;;;29.52;37.42;96850.59;4935745;28;20046;-63
2022/05/11 09:07:56;;;;;;;4.43;2.97;;;;;;;29.94;38.15;96849.41;4963735;28;20050;-64
2022/05/11 09:10:31;;;;;;;6.95;3.10;;;;;;;30.25;36.07;96845.16;4951454;28;20547;-64
2022/05/11 09:13:10;;;;;;;5.28;2.75;;;;;;;31.35;33.39;96841.59;4947853;28;20388;-63
2022/05/11 09:15:54;;;;;;;4.70;3.05;;;;;;;32.17;32.55;96841.06;4977426;28;20370;-63
2022/05/11 09:18:20;;;;;;;6.07;2.90;;;;;;;31.88;33.38;96842.97;4958619;28;20404;-63
2022/05/11 09:20:50;;;;;;;4.57;3.33;;;;;;;31.27;33.77;96844.13;4963344;28;20042;-66
2022/05/11 09:23:34;;;;;;;6.72;3.70;;;;;;;31.13;33.66;96834.50;4957827;28;20043;-65
2022/05/11 09:26:06;;;;;;;8.00;3.60;;;;;;;29.86;34.91;96843.41;4960784;28;20049;-66
2022/05/11 09:28:35;;;;;;;5.90;3.75;;;;;;;30.71;33.88;96832.31;4972809;28;20046;-65
2022/05/11 09:31:05;;;;;;;4.55;2.80;;;;;;;28.95;37.06;96835.59;4966962;28;20069;-66
2022/05/11 09:33:40;;;;;;;5.15;3.17;;;;;;;28.68;37.37;96847.16;4968349;28;20062;-65
2022/05/11 09:36:07;;;;;;;6.28;3.40;;;;;;;29.53;35.67;96832.41;4974337;28;20070;-65
2022/05/11 09:38:42;;;;;;;7.93;3.80;;;;;;;30.23;34.52;96836.41;4964919;28;20045;-66
2022/05/11 09:41:22;;;;;;;7.35;3.92;;;;;;;30.81;33.07;96825.19;4958412;28;20377;-67
2022/05/11 09:43:51;;;;;;;6.15;2.80;;;;;;;30.79;33.24;96834.19;4963176;28;20451;-66
2022/05/11 09:46:22;;;;;;;6.30;2.33;;;;;;;29.69;33.93;96826.22;4957066;28;20133;-66
2022/05/11 09:48:57;;;;;;;4.15;2.42;;;;;;;31.45;32.04;96818.25;4961881;28;20035;-66
2022/05/11 09:51:25;;;;;;;7.20;2.42;;;;;;;30.35;32.62;96821.16;4957673;28;20074;-66
2022/05/11 09:54:00;;;;;;;8.55;2.65;;;;;;;30.52;32.53;96820.56;4961891;28;20543;-66
2022/05/11 09:56:34;;;;;;;9.30;2.75;;;;;;;30.01;33.60;96814.31;4955878;28;20112;-67
2022/05/11 09:59:29;;;;;;;3.83;2.58;;;;;;;30.35;31.33;96817.56;4960348;28;20038;-67
2022/05/11 10:02:02;;;;;;;3.60;2.47;;;;;;;29.66;34.02;96809.50;4976403;28;20051;-65
2022/05/11 10:04:42;;;;;;;2.58;2.03;;;;;;;29.69;33.53;96814.13;4970537;28;20050;-66
2022/05/11 10:07:12;;;;;;;3.70;2.33;;;;;;;30.31;32.25;96814.94;4956300;28;20090;-66
2022/05/11 10:09:43;;;;;;;5.43;2.53;;;;;;;30.24;32.09;96807.66;4960770;28;20038;-67
2022/05/11 10:12:15;;;;;;;4.93;1.98;;;;;;;30.34;31.62;96807.53;4974084;28;20046;-65
2022/05/11 10:23:28;;;;;;;6.43;2.85;;;;;;;30.38;31.97;96797.56;4952524;28;20043;-68
2022/05/11 10:26:04;;;;;;;6.55;2.13;;;;;;;29.92;32.07;96790.59;4961307;28;20094;-65
2022/05/11 10:28:54;;;;;;;5.10;2.55;;;;;;;30.29;31.68;96784.34;4958245;28;20046;-66
2022/05/11 10:31:36;;;;;;;5.70;2.40;;;;;;;29.93;32.22;96788.56;4953003;28;20051;-66
2022/05/11 10:34:33;;;;;;;5.03;3.28;;;;;;;30.01;32.05;96777.63;4958275;28;20074;-62
2022/05/11 10:37:13;;;;;;;4.32;2.65;;;;;;;29.69;31.98;96781.06;4956660;28;20522;-64
2022/05/11 10:40:02;;;;;;;5.07;2.90;;;;;;;29.55;32.76;96773.44;4959126;28;20054;-65
2022/05/11 10:43:00;;;;;;;3.85;2.55;;;;;;;29.65;34.60;96774.84;4956337;28;20066;-66
2022/05/11 10:45:47;;;;;;;4.38;3.10;;;;;;;29.15;34.72;96770.06;4952515;28;20495;-68
2022/05/11 10:48:55;;;;;;;7.80;3.67;;;;;;;28.27;39.87;96762.41;4956319;28;20133;-67
2022/05/11 10:51:45;;;;;;;8.88;3.28;;;;;;;27.81;37.40;96755.13;4953815;28;20105;-65
2022/05/11 10:54:33;;;;;;;5.97;3.45;;;;;;;27.96;41.29;96750.31;4952467;28;20042;-67
2022/05/11 10:57:17;;;;;;;6.90;3.80;;;;;;;27.87;40.59;96755.22;4969202;28;20093;-66
2022/05/11 11:00:06;;;;;;;8.00;3.50;;;;;;;27.79;42.59;96749.19;4994971;28;20038;-66
2022/05/11 11:03:01;;;;;;;5.88;3.20;;;;;;;27.38;41.89;96746.03;4980184;28;20054;-66
2022/05/11 11:09:42;;;;;;;7.22;4.85;;;;;;;27.15;44.39;96741.94;4913979;29;20047;-64
2022/05/11 11:12:33;;;;;;;5.57;3.53;;;;;;;26.92;44.39;96730.19;4912158;29;20039;-66
2022/05/11 11:15:02;;;;;;;4.97;3.83;;;;;;;26.73;45.72;96728.72;4949439;28;20050;-67
2022/05/11 11:17:29;;;;;;;8.40;3.85;;;;;;;26.85;44.83;96728.50;4973416;28;20050;-67
2022/05/11 11:20:03;;;;;;;5.20;3.75;;;;;;;26.52;44.18;96726.41;4980333;28;20049;-66
2022/05/11 11:23:06;;;;;;;8.55;3.65;;;;;;;26.56;43.89;96725.44;4975732;28;20049;-66
2022/05/11 11:25:44;;;;;;;6.20;3.70;;;;;;;26.49;44.55;96723.78;4977448;28;20419;-66
2022/05/11 11:28:14;;;;;;;4.45;3.05;;;;;;;26.67;43.19;96717.34;4976924;28;20046;-67
2022/05/11 11:30:42;;;;;;;7.85;5.15;;;;;;;26.40;43.18;96712.56;4978763;28;20094;-66
2022/05/11 11:33:11;;;;;;;8.10;4.10;;;;;;;26.43;43.69;96708.81;4974841;28;20035;-67
2022/05/11 11:35:51;;;;;;;7.15;3.80;;;;;;;26.61;42.59;96705.97;4979796;28;20112;-66
2022/05/11 11:38:30;;;;;;;7.28;3.03;;;;;;;26.66;42.22;96705.31;4975716;28;20066;-68
2022/05/11 11:41:13;;;;;;;7.95;4.25;;;;;;;26.87;41.57;96705.56;4979659;28;20050;-67
2022/05/11 11:43:56;;;;;;;8.75;3.05;;;;;;;27.09;41.64;96699.66;4976260;28;20517;-66
2022/05/11 11:46:44;;;;;;;10.38;3.00;;;;;;;27.41;40.90;96691.66;4968517;28;20062;-67
2022/05/11 11:49:19;;;;;;;4.05;2.60;;;;;;;27.38;38.71;96689.81;4974787;28;20077;-68
2022/05/11 11:51:54;;;;;;;4.88;3.17;;;;;;;27.33;35.99;96698.91;4976691;28;20431;-67
2022/05/11 11:54:38;;;;;;;5.40;2.90;;;;;;;27.12;38.57;96693.06;4967954;28;20490;-67
2022/05/11 11:57:28;;;;;;;6.85;2.75;;;;;;;27.32;38.46;96681.25;4971398;28;20058;-70
2022/05/11 11:59:57;;;;;;;6.00;3.50;;;;;;;27.37;39.58;96682.63;4976032;28;20061;-69
2022/05/11 12:02:32;;;;;;;7.88;3.20;;;;;;;27.26;41.02;96671.88;4957742;28;20129;-65
2022/05/11 12:05:10;;;;;;;9.20;2.65;;;;;;;27.62;37.31;96668.06;4979881;28;20054;-66
2022/05/11 12:16:26;;;;;;;4.80;2.80;;;;;;;27.91;34.91;96651.69;4953525;28;20047;-69
2022/05/11 12:18:52;;;;;;;7.28;2.13;;;;;;;27.93;33.06;96647.16;4961022;28;20054;-66
2022/05/11 12:21:28;;;;;;;5.88;2.08;;;;;;;28.04;33.46;96646.59;4963224;28;20077;-62
2022/05/11 12:23:54;;;;;;;4.43;2.13;;;;;;;28.06;31.52;96643.28;4959066;28;20528;-64
2022/05/11 12:26:30;;;;;;;5.15;2.00;;;;;;;28.33;32.08;96648.59;4955206;28;20059;-63